sensor_id;sensor_type;location;lat;lon;timestamp;pressure;altitude;pressure_sealevel;temperature;humidity
11487;BME280;10510;47.942;9.442;2023-09-12T00:00:35;94391.41;;;15.92;100.00
11487;BME280;10510;47.942;9.442;2023-09-12T00:02:35;94387.75;;;15.93;100.00
11487;BME280;10510;47.942;9.442;2023-09-12T00:04:35;94386.94;;;15.93;100.00
11487;BME280;10510;47.942;9.442;2023-09-12T00:06:35;94395.28;;;15.89;100.00
11487;BME280;10510;47.942;9.442;2023-09-12T00:08:36;94394.50;;;15.89;100.00
11487;BME280;10510;47.942;9.442;2023-09-12T00:10:36;94387.59;;;15.88;100.00
11487;BME280;10510;47.942;9.442;2023-09-12T00:12:36;94395.16;;;15.84;100.00
11487;BME280;10510;47.942;9.442;2023-09-12T00:14:37;94391.13;;;15.82;100.00
11487;BME280;10510;47.942;9.442;2023-09-12T00:16:37;94396.91;;;15.72;100.00
11487;BME280;10510;47.942;9.442;2023-09-12T00:18:38;94389.97;;;15.59;100.00
11487;BME280;10510;47.942;9.442;2023-09-12T00:20:38;94397.91;;;15.53;100.00
11487;BME280;10510;47.942;9.442;2023-09-12T00:22:38;94396.31;;;15.52;100.00
11487;BME280;10510;47.942;9.442;2023-09-12T00:24:39;94391.41;;;15.55;100.00
11487;BME280;10510;47.942;9.442;2023-09-12T00:26:39;94384.44;;;15.61;100.00
11487;BME280;10510;47.942;9.442;2023-09-12T00:28:39;94383.81;;;15.65;100.00
11487;BME280;10510;47.942;9.442;2023-09-12T00:30:40;94386.09;;;15.62;100.00
11487;BME280;10510;47.942;9.442;2023-09-12T00:32:40;94385.34;;;15.55;100.00
11487;BME280;10510;47.942;9.442;2023-09-12T00:34:40;94383.22;;;15.45;100.00
11487;BME280;10510;47.942;9.442;2023-09-12T00:36:41;94386.38;;;15.35;100.00
11487;BME280;10510;47.942;9.442;2023-09-12T00:38:41;94376.31;;;15.26;100.00
11487;BME280;10510;47.942;9.442;2023-09-12T00:40:41;94377.19;;;15.19;100.00
11487;BME280;10510;47.942;9.442;2023-09-12T00:42:42;94375.81;;;15.17;100.00
11487;BME280;10510;47.942;9.442;2023-09-12T00:44:42;94378.44;;;15.17;100.00
11487;BME280;10510;47.942;9.442;2023-09-12T00:46:44;94375.81;;;15.17;100.00
11487;BME280;10510;47.942;9.442;2023-09-12T00:48:44;94372.00;;;15.13;100.00
11487;BME280;10510;47.942;9.442;2023-09-12T00:50:47;94370.25;;;15.07;100.00
11487;BME280;10510;47.942;9.442;2023-09-12T00:52:48;94372.72;;;15.02;100.00
11487;BME280;10510;47.942;9.442;2023-09-12T00:54:49;94370.16;;;14.95;100.00
11487;BME280;10510;47.942;9.442;2023-09-12T00:56:49;94366.94;;;14.93;100.00
11487;BME280;10510;47.942;9.442;2023-09-12T00:58:50;94374.44;;;14.89;100.00
11487;BME280;10510;47.942;9.442;2023-09-12T01:00:51;94367.78;;;14.87;100.00
11487;BME280;10510;47.942;9.442;2023-09-12T01:02:52;94371.44;;;14.86;100.00
11487;BME280;10510;47.942;9.442;2023-09-12T01:04:54;94366.41;;;14.84;100.00
11487;BME280;10510;47.942;9.442;2023-09-12T01:06:54;94367.41;;;14.83;100.00
11487;BME280;10510;47.942;9.442;2023-09-12T01:08:55;94369.81;;;14.85;100.00
11487;BME280;10510;47.942;9.442;2023-09-12T01:10:55;94374.66;;;14.88;100.00
11487;BME280;10510;47.942;9.442;2023-09-12T01:12:57;94376.28;;;14.89;100.00
11487;BME280;10510;47.942;9.442;2023-09-12T01:14:57;94371.03;;;14.89;100.00
11487;BME280;10510;47.942;9.442;2023-09-12T01:16:58;94373.84;;;14.87;100.00
11487;BME280;10510;47.942;9.442;2023-09-12T01:18:58;94382.78;;;14.86;100.00
11487;BME280;10510;47.942;9.442;2023-09-12T01:26:03;94382.88;;;14.73;100.00
11487;BME280;10510;47.942;9.442;2023-09-12T01:28:09;94388.13;;;14.73;100.00
11487;BME280;10510;47.942;9.442;2023-09-12T01:30:10;94380.25;;;14.73;100.00
11487;BME280;10510;47.942;9.442;2023-09-12T01:32:11;94388.13;;;14.73;100.00
11487;BME280;10510;47.942;9.442;2023-09-12T01:34:12;94393.03;;;14.69;100.00
11487;BME280;10510;47.942;9.442;2023-09-12T01:36:12;94390.81;;;14.66;100.00
11487;BME280;10510;47.942;9.442;2023-09-12T01:38:13;94384.97;;;14.64;100.00
11487;BME280;10510;47.942;9.442;2023-09-12T01:40:14;94388.41;;;14.65;100.00
11487;BME280;10510;47.942;9.442;2023-09-12T01:42:18;94386.16;;;14.68;100.00
11487;BME280;10510;47.942;9.442;2023-09-12T01:44:22;94384.94;;;14.71;100.00
11487;BME280;10510;47.942;9.442;2023-09-12T01:46:25;94386.09;;;14.75;100.00
11487;BME280;10510;47.942;9.442;2023-09-12T01:48:29;94382.25;;;14.77;100.00
11487;BME280;10510;47.942;9.442;2023-09-12T01:50:33;94379.97;;;14.81;100.00
11487;BME280;10510;47.942;9.442;2023-09-12T01:52:36;94377.16;;;14.83;100.00
11487;BME280;10510;47.942;9.442;2023-09-12T01:54:37;94379.53;;;14.84;100.00
11487;BME280;10510;47.942;9.442;2023-09-12T01:56:38;94378.50;;;14.85;100.00
11487;BME280;10510;47.942;9.442;2023-09-12T01:58:39;94375.09;;;14.85;100.00
11487;BME280;10510;47.942;9.442;2023-09-12T02:00:40;94379.97;;;14.81;100.00
11487;BME280;10510;47.942;9.442;2023-09-12T02:02:41;94377.78;;;14.78;100.00
11487;BME280;10510;47.942;9.442;2023-09-12T02:04:51;94379.25;;;14.74;100.00
11487;BME280;10510;47.942;9.442;2023-09-12T02:06:54;94385.50;;;14.73;100.00
11487;BME280;10510;47.942;9.442;2023-09-12T02:08:54;94383.91;;;14.72;100.00
11487;BME280;10510;47.942;9.442;2023-09-12T02:10:54;94377.03;;;14.71;100.00
11487;BME280;10510;47.942;9.442;2023-09-12T02:12:55;94378.91;;;14.64;100.00
11487;BME280;10510;47.942;9.442;2023-09-12T02:14:55;94382.22;;;14.52;100.00
11487;BME280;10510;47.942;9.442;2023-09-12T02:16:55;94383.84;;;14.47;100.00
11487;BME280;10510;47.942;9.442;2023-09-12T02:18:55;94390.94;;;14.46;100.00
11487;BME280;10510;47.942;9.442;2023-09-12T02:20:58;94386.28;;;14.48;100.00
11487;BME280;10510;47.942;9.442;2023-09-12T02:22:58;94383.84;;;14.53;100.00
11487;BME280;10510;47.942;9.442;2023-09-12T02:24:58;94393.50;;;14.60;100.00
11487;BME280;10510;47.942;9.442;2023-09-12T02:26:59;94390.66;;;14.61;100.00
11487;BME280;10510;47.942;9.442;2023-09-12T02:28:59;94388.69;;;14.57;100.00
11487;BME280;10510;47.942;9.442;2023-09-12T02:30:59;94396.56;;;14.50;100.00
11487;BME280;10510;47.942;9.442;2023-09-12T02:32:59;94398.63;;;14.48;100.00
11487;BME280;10510;47.942;9.442;2023-09-12T02:35:00;94389.94;;;14.47;100.00
11487;BME280;10510;47.942;9.442;2023-09-12T02:37:00;94398.38;;;14.49;100.00
11487;BME280;10510;47.942;9.442;2023-09-12T02:39:01;94394.16;;;14.48;100.00
11487;BME280;10510;47.942;9.442;2023-09-12T02:41:01;94386.47;;;14.47;100.00
11487;BME280;10510;47.942;9.442;2023-09-12T02:43:02;94393.56;;;14.46;100.00
11487;BME280;10510;47.942;9.442;2023-09-12T02:45:03;94396.19;;;14.46;100.00
11487;BME280;10510;47.942;9.442;2023-09-12T02:47:04;94390.94;;;14.46;100.00
11487;BME280;10510;47.942;9.442;2023-09-12T02:49:05;94387.31;;;14.47;100.00
11487;BME280;10510;47.942;9.442;2023-09-12T02:51:05;94388.09;;;14.48;100.00
11487;BME280;10510;47.942;9.442;2023-09-12T02:53:05;94378.16;;;14.50;100.00
11487;BME280;10510;47.942;9.442;2023-09-12T02:55:06;94389.50;;;14.50;100.00
11487;BME280;10510;47.942;9.442;2023-09-12T02:57:06;94385.66;;;14.46;100.00
11487;BME280;10510;47.942;9.442;2023-09-12T02:59:07;94390.97;;;14.40;100.00
11487;BME280;10510;47.942;9.442;2023-09-12T03:01:07;94384.78;;;14.27;100.00
11487;BME280;10510;47.942;9.442;2023-09-12T03:03:07;94384.84;;;14.14;100.00
11487;BME280;10510;47.942;9.442;2023-09-12T03:05:09;94387.97;;;14.04;100.00
11487;BME280;10510;47.942;9.442;2023-09-12T03:07:10;94379.31;;;13.97;100.00
11487;BME280;10510;47.942;9.442;2023-09-12T03:09:10;94389.00;;;13.97;100.00
11487;BME280;10510;47.942;9.442;2023-09-12T03:11:11;94379.31;;;13.97;100.00
11487;BME280;10510;47.942;9.442;2023-09-12T03:13:11;94381.53;;;13.94;100.00
11487;BME280;10510;47.942;9.442;2023-09-12T03:15:12;94372.25;;;13.91;100.00
11487;BME280;10510;47.942;9.442;2023-09-12T03:17:13;94384.19;;;13.87;100.00
11487;BME280;10510;47.942;9.442;2023-09-12T03:19:13;94377.13;;;13.88;100.00
11487;BME280;10510;47.942;9.442;2023-09-12T03:21:14;94369.03;;;13.89;100.00
11487;BME280;10510;47.942;9.442;2023-09-12T03:23:14;94371.25;;;13.92;100.00
11487;BME280;10510;47.942;9.442;2023-09-12T03:25:14;94371.03;;;13.94;100.00
11487;BME280;10510;47.942;9.442;2023-09-12T03:27:14;94377.31;;;13.93;100.00
11487;BME280;10510;47.942;9.442;2023-09-12T03:29:15;94376.13;;;13.89;100.00
11487;BME280;10510;47.942;9.442;2023-09-12T03:31:15;94368.66;;;13.85;100.00
11487;BME280;10510;47.942;9.442;2023-09-12T03:33:15;94374.13;;;13.84;100.00
11487;BME280;10510;47.942;9.442;2023-09-12T03:35:16;94376.34;;;13.80;100.00
11487;BME280;10510;47.942;9.442;2023-09-12T03:37:16;94377.56;;;13.78;100.00
11487;BME280;10510;47.942;9.442;2023-09-12T03:39:16;94375.38;;;13.75;100.00
11487;BME280;10510;47.942;9.442;2023-09-12T03:41:16;94377.63;;;13.71;100.00
11487;BME280;10510;47.942;9.442;2023-09-12T03:43:17;94374.56;;;13.68;100.00
11487;BME280;10510;47.942;9.442;2023-09-12T03:45:17;94376.03;;;13.63;100.00
11487;BME280;10510;47.942;9.442;2023-09-12T03:47:18;94379.44;;;13.64;100.00
11487;BME280;10510;47.942;9.442;2023-09-12T03:49:18;94377.44;;;13.66;100.00
11487;BME280;10510;47.942;9.442;2023-09-12T03:51:18;94382.69;;;13.66;100.00
11487;BME280;10510;47.942;9.442;2023-09-12T03:53:18;94377.84;;;13.63;100.00
11487;BME280;10510;47.942;9.442;2023-09-12T03:55:19;94377.47;;;13.59;100.00
11487;BME280;10510;47.942;9.442;2023-09-12T03:57:19;94367.94;;;13.58;100.00
11487;BME280;10510;47.942;9.442;2023-09-12T03:59:19;94370.81;;;13.57;100.00
11487;BME280;10510;47.942;9.442;2023-09-12T04:01:20;94370.38;;;13.60;100.00
11487;BME280;10510;47.942;9.442;2023-09-12T04:03:20;94372.97;;;13.67;100.00
11487;BME280;10510;47.942;9.442;2023-09-12T04:05:21;94375.00;;;13.71;100.00
11487;BME280;10510;47.942;9.442;2023-09-12T04:07:21;94368.28;;;13.75;100.00
11487;BME280;10510;47.942;9.442;2023-09-12T04:09:21;94374.53;;;13.81;100.00
11487;BME280;10510;47.942;9.442;2023-09-12T04:11:21;94371.44;;;13.91;100.00
11487;BME280;10510;47.942;9.442;2023-09-12T04:13:22;94377.63;;;14.03;100.00
11487;BME280;10510;47.942;9.442;2023-09-12T04:15:22;94375.41;;;14.06;100.00
11487;BME280;10510;47.942;9.442;2023-09-12T04:17:22;94376.00;;;14.08;100.00
11487;BME280;10510;47.942;9.442;2023-09-12T04:19:22;94382.75;;;13.98;100.00
11487;BME280;10510;47.942;9.442;2023-09-12T04:21:23;94376.53;;;13.85;100.00
11487;BME280;10510;47.942;9.442;2023-09-12T04:23:25;94379.78;;;13.81;100.00
11487;BME280;10510;47.942;9.442;2023-09-12T04:25:25;94383.22;;;13.81;100.00
11487;BME280;10510;47.942;9.442;2023-09-12T04:27:25;94383.03;;;13.83;100.00
11487;BME280;10510;47.942;9.442;2023-09-12T04:29:25;94378.94;;;13.87;100.00
11487;BME280;10510;47.942;9.442;2023-09-12T04:31:27;94381.16;;;13.90;100.00
11487;BME280;10510;47.942;9.442;2023-09-12T04:33:27;94381.94;;;13.91;100.00
11487;BME280;10510;47.942;9.442;2023-09-12T04:35:28;94384.59;;;13.91;100.00
11487;BME280;10510;47.942;9.442;2023-09-12T04:37:28;94378.34;;;13.92;100.00
11487;BME280;10510;47.942;9.442;2023-09-12T04:39:29;94383.59;;;13.92;100.00
11487;BME280;10510;47.942;9.442;2023-09-12T04:41:30;94376.13;;;13.89;100.00
11487;BME280;10510;47.942;9.442;2023-09-12T04:43:31;94381.94;;;13.91;100.00
11487;BME280;10510;47.942;9.442;2023-09-12T04:45:33;94382.22;;;13.82;100.00
11487;BME280;10510;47.942;9.442;2023-09-12T04:47:33;94372.31;;;13.78;100.00
11487;BME280;10510;47.942;9.442;2023-09-12T04:49:34;94385.06;;;13.74;100.00
11487;BME280;10510;47.942;9.442;2023-09-12T04:51:34;94376.59;;;13.72;100.00
11487;BME280;10510;47.942;9.442;2023-09-12T04:53:34;94374.75;;;13.73;100.00
11487;BME280;10510;47.942;9.442;2023-09-12T04:55:36;94372.31;;;13.78;100.00
11487;BME280;10510;47.942;9.442;2023-09-12T04:57:36;94381.81;;;13.79;100.00
11487;BME280;10510;47.942;9.442;2023-09-12T04:59:36;94378.78;;;13.75;100.00
11487;BME280;10510;47.942;9.442;2023-09-12T05:01:37;94378.19;;;13.73;100.00
11487;BME280;10510;47.942;9.442;2023-09-12T05:03:37;94386.28;;;13.72;100.00
11487;BME280;10510;47.942;9.442;2023-09-12T05:05:37;94382.88;;;13.71;100.00
11487;BME280;10510;47.942;9.442;2023-09-12T05:07:37;94380.25;;;13.64;100.00
11487;BME280;10510;47.942;9.442;2023-09-12T05:09:38;94380.66;;;13.61;100.00
11487;BME280;10510;47.942;9.442;2023-09-12T05:11:38;94386.94;;;13.60;100.00
11487;BME280;10510;47.942;9.442;2023-09-12T05:13:38;94379.44;;;13.64;100.00
11487;BME280;10510;47.942;9.442;2023-09-12T05:15:40;94382.06;;;13.71;100.00
11487;BME280;10510;47.942;9.442;2023-09-12T05:17:41;94379.59;;;13.76;100.00
11487;BME280;10510;47.942;9.442;2023-09-12T05:19:41;94380.41;;;13.83;100.00
11487;BME280;10510;47.942;9.442;2023-09-12T05:21:42;94376.69;;;13.91;100.00
11487;BME280;10510;47.942;9.442;2023-09-12T05:23:43;94377.91;;;13.95;100.00
11487;BME280;10510;47.942;9.442;2023-09-12T05:25:43;94379.31;;;13.97;100.00
11487;BME280;10510;47.942;9.442;2023-09-12T05:27:43;94381.28;;;14.02;100.00
11487;BME280;10510;47.942;9.442;2023-09-12T05:29:44;94392.38;;;14.11;100.00
11487;BME280;10510;47.942;9.442;2023-09-12T05:31:44;94385.66;;;14.15;100.00
11487;BME280;10510;47.942;9.442;2023-09-12T05:33:44;94396.97;;;14.22;100.00
11487;BME280;10510;47.942;9.442;2023-09-12T05:35:44;94402.41;;;14.27;100.00
11487;BME280;10510;47.942;9.442;2023-09-12T05:37:45;94396.88;;;14.35;100.00
11487;BME280;10510;47.942;9.442;2023-09-12T05:39:45;94407.34;;;14.42;100.00
11487;BME280;10510;47.942;9.442;2023-09-12T05:41:45;94410.59;;;14.37;100.00
11487;BME280;10510;47.942;9.442;2023-09-12T05:43:45;94408.22;;;14.29;100.00
11487;BME280;10510;47.942;9.442;2023-09-12T05:45:46;94411.69;;;14.29;100.00
11487;BME280;10510;47.942;9.442;2023-09-12T05:47:46;94407.59;;;14.34;100.00
11487;BME280;10510;47.942;9.442;2023-09-12T05:49:48;94405.72;;;14.41;100.00
11487;BME280;10510;47.942;9.442;2023-09-12T05:51:48;94399.63;;;14.53;100.00
11487;BME280;10510;47.942;9.442;2023-09-12T05:53:48;94401.13;;;14.68;100.00
11487;BME280;10510;47.942;9.442;2023-09-12T05:55:49;94407.69;;;14.84;100.00
11487;BME280;10510;47.942;9.442;2023-09-12T05:57:50;94399.66;;;14.97;100.00
11487;BME280;10510;47.942;9.442;2023-09-12T05:59:53;94401.16;;;15.11;100.00
11487;BME280;10510;47.942;9.442;2023-09-12T06:01:53;94407.13;;;15.25;100.00
11487;BME280;10510;47.942;9.442;2023-09-12T06:03:53;94406.56;;;15.41;100.00
11487;BME280;10510;47.942;9.442;2023-09-12T06:05:54;94410.06;;;15.54;100.00
11487;BME280;10510;47.942;9.442;2023-09-12T06:07:54;94413.16;;;15.69;100.00
11487;BME280;10510;47.942;9.442;2023-09-12T06:09:54;94409.06;;;15.92;100.00
11487;BME280;10510;47.942;9.442;2023-09-12T06:11:55;94410.19;;;16.14;100.00
11487;BME280;10510;47.942;9.442;2023-09-12T06:13:55;94410.81;;;16.28;100.00
11487;BME280;10510;47.942;9.442;2023-09-12T06:15:55;94423.16;;;16.46;100.00
11487;BME280;10510;47.942;9.442;2023-09-12T06:17:55;94410.13;;;16.63;100.00
11487;BME280;10510;47.942;9.442;2023-09-12T06:19:56;94417.41;;;16.79;100.00
11487;BME280;10510;47.942;9.442;2023-09-12T06:21:56;94411.22;;;16.97;100.00
11487;BME280;10510;47.942;9.442;2023-09-12T06:24:10;94401.38;;;17.16;100.00
11487;BME280;10510;47.942;9.442;2023-09-12T06:26:11;94405.28;;;17.37;100.00
11487;BME280;10510;47.942;9.442;2023-09-12T06:28:11;94397.00;;;17.57;100.00
11487;BME280;10510;47.942;9.442;2023-09-12T06:30:12;94397.66;;;17.76;100.00
11487;BME280;10510;47.942;9.442;2023-09-12T06:32:12;94397.06;;;17.97;100.00
11487;BME280;10510;47.942;9.442;2023-09-12T06:34:13;94401.13;;;18.16;100.00
11487;BME280;10510;47.942;9.442;2023-09-12T06:36:13;94406.69;;;18.32;100.00
11487;BME280;10510;47.942;9.442;2023-09-12T06:38:13;94412.03;;;18.49;100.00
11487;BME280;10510;47.942;9.442;2023-09-12T06:40:13;94416.16;;;18.56;100.00
11487;BME280;10510;47.942;9.442;2023-09-12T06:42:14;94414.63;;;18.60;100.00
11487;BME280;10510;47.942;9.442;2023-09-12T06:44:14;94418.59;;;18.75;100.00
11487;BME280;10510;47.942;9.442;2023-09-12T06:46:15;94419.09;;;18.89;100.00
11487;BME280;10510;47.942;9.442;2023-09-12T06:48:17;94417.97;;;19.01;100.00
11487;BME280;10510;47.942;9.442;2023-09-12T06:50:17;94408.41;;;19.17;100.00
11487;BME280;10510;47.942;9.442;2023-09-12T06:52:18;94418.41;;;19.49;100.00
11487;BME280;10510;47.942;9.442;2023-09-12T06:54:18;94413.56;;;20.02;100.00
11487;BME280;10510;47.942;9.442;2023-09-12T06:56:18;94414.16;;;20.31;100.00
11487;BME280;10510;47.942;9.442;2023-09-12T06:58:18;94417.75;;;20.69;100.00
11487;BME280;10510;47.942;9.442;2023-09-12T07:00:19;94421.81;;;20.76;100.00
11487;BME280;10510;47.942;9.442;2023-09-12T07:02:20;94427.97;;;20.82;100.00
11487;BME280;10510;47.942;9.442;2023-09-12T07:04:21;94429.09;;;20.86;100.00
11487;BME280;10510;47.942;9.442;2023-09-12T07:06:23;94422.66;;;20.82;100.00
11487;BME280;10510;47.942;9.442;2023-09-12T07:08:23;94427.97;;;20.82;100.00
11487;BME280;10510;47.942;9.442;2023-09-12T07:10:23;94418.75;;;20.90;100.00
11487;BME280;10510;47.942;9.442;2023-09-12T07:12:23;94427.34;;;21.02;100.00
11487;BME280;10510;47.942;9.442;2023-09-12T07:14:24;94425.59;;;21.13;100.00
11487;BME280;10510;47.942;9.442;2023-09-12T07:16:25;94426.44;;;21.18;100.00
11487;BME280;10510;47.942;9.442;2023-09-12T07:18:25;94426.19;;;21.25;100.00
11487;BME280;10510;47.942;9.442;2023-09-12T07:20:26;94430.31;;;21.38;100.00
11487;BME280;10510;47.942;9.442;2023-09-12T07:22:26;94431.69;;;21.45;100.00
11487;BME280;10510;47.942;9.442;2023-09-12T07:24:27;94431.50;;;21.57;100.00
11487;BME280;10510;47.942;9.442;2023-09-12T07:26:27;94432.38;;;21.73;100.00
11487;BME280;10510;47.942;9.442;2023-09-12T07:28:30;94426.34;;;21.88;100.00
11487;BME280;10510;47.942;9.442;2023-09-12T07:30:30;94421.06;;;21.93;100.00
11487;BME280;10510;47.942;9.442;2023-09-12T07:32:31;94417.84;;;21.91;100.00
11487;BME280;10510;47.942;9.442;2023-09-12T07:34:31;94418.47;;;22.03;100.00
11487;BME280;10510;47.942;9.442;2023-09-12T07:36:31;94415.31;;;22.16;100.00
11487;BME280;10510;47.942;9.442;2023-09-12T07:38:31;94415.16;;;22.38;100.00
11487;BME280;10510;47.942;9.442;2023-09-12T07:40:32;94415.44;;;22.52;100.00
11487;BME280;10510;47.942;9.442;2023-09-12T07:42:32;94417.06;;;22.68;100.00
11487;BME280;10510;47.942;9.442;2023-09-12T07:44:33;94420.81;;;22.78;100.00
11487;BME280;10510;47.942;9.442;2023-09-12T07:46:33;94427.19;;;23.84;100.00
11487;BME280;10510;47.942;9.442;2023-09-12T07:48:33;94429.31;;;23.97;100.00
11487;BME280;10510;47.942;9.442;2023-09-12T07:50:34;94430.34;;;24.01;100.00
11487;BME280;10510;47.942;9.442;2023-09-12T07:52:34;94435.13;;;25.77;100.00
11487;BME280;10510;47.942;9.442;2023-09-12T07:54:34;94434.94;;;26.65;100.00
11487;BME280;10510;47.942;9.442;2023-09-12T07:56:36;94436.97;;;26.30;100.00
11487;BME280;10510;47.942;9.442;2023-09-12T07:58:37;94439.13;;;26.28;100.00
11487;BME280;10510;47.942;9.442;2023-09-12T08:00:37;94440.47;;;27.44;100.00
11487;BME280;10510;47.942;9.442;2023-09-12T08:02:37;94447.72;;;28.09;100.00
11487;BME280;10510;47.942;9.442;2023-09-12T08:04:38;94440.97;;;27.65;100.00
11487;BME280;10510;47.942;9.442;2023-09-12T08:06:38;94439.03;;;28.26;100.00
11487;BME280;10510;47.942;9.442;2023-09-12T08:08:38;94443.03;;;28.42;100.00
11487;BME280;10510;47.942;9.442;2023-09-12T08:10:39;94442.59;;;29.58;100.00
11487;BME280;10510;47.942;9.442;2023-09-12T08:12:39;94438.72;;;30.84;100.00
11487;BME280;10510;47.942;9.442;2023-09-12T08:14:40;94437.13;;;30.91;100.00
11487;BME280;10510;47.942;9.442;2023-09-12T08:16:40;94443.47;;;29.98;100.00
11487;BME280;10510;47.942;9.442;2023-09-12T08:18:41;94445.47;;;29.16;100.00
11487;BME280;10510;47.942;9.442;2023-09-12T08:20:41;94448.06;;;29.22;100.00
11487;BME280;10510;47.942;9.442;2023-09-12T08:22:42;94445.75;;;28.79;100.00
11487;BME280;10510;47.942;9.442;2023-09-12T08:24:43;94444.31;;;29.76;100.00
11487;BME280;10510;47.942;9.442;2023-09-12T08:26:43;94440.44;;;30.80;100.00
11487;BME280;10510;47.942;9.442;2023-09-12T08:28:43;94430.31;;;32.10;100.00
11487;BME280;10510;47.942;9.442;2023-09-12T08:30:44;94443.41;;;31.74;100.00
11487;BME280;10510;47.942;9.442;2023-09-12T08:32:46;94439.28;;;32.32;100.00
11487;BME280;10510;47.942;9.442;2023-09-12T08:34:46;94438.53;;;32.61;100.00
11487;BME280;10510;47.942;9.442;2023-09-12T08:36:46;94432.94;;;32.87;100.00
11487;BME280;10510;47.942;9.442;2023-09-12T08:38:47;94436.78;;;32.86;100.00
11487;BME280;10510;47.942;9.442;2023-09-12T08:40:51;94437.41;;;33.13;100.00
11487;BME280;10510;47.942;9.442;2023-09-12T08:42:52;94437.53;;;31.89;100.00
11487;BME280;10510;47.942;9.442;2023-09-12T08:44:52;94433.41;;;30.61;100.00
11487;BME280;10510;47.942;9.442;2023-09-12T08:46:52;94435.88;;;30.31;100.00
11487;BME280;10510;47.942;9.442;2023-09-12T08:48:55;94437.78;;;30.31;100.00
11487;BME280;10510;47.942;9.442;2023-09-12T08:50:56;94438.53;;;30.23;100.00
11487;BME280;10510;47.942;9.442;2023-09-12T08:52:57;94434.00;;;30.01;100.00
11487;BME280;10510;47.942;9.442;2023-09-12T08:54:57;94439.19;;;29.88;100.00
11487;BME280;10510;47.942;9.442;2023-09-12T08:56:59;94438.06;;;30.29;100.00
11487;BME280;10510;47.942;9.442;2023-09-12T08:59:01;94432.53;;;30.92;100.00
11487;BME280;10510;47.942;9.442;2023-09-12T09:01:02;94425.69;;;31.12;100.00
11487;BME280;10510;47.942;9.442;2023-09-12T09:03:03;94439.97;;;31.56;100.00
11487;BME280;10510;47.942;9.442;2023-09-12T09:05:05;94435.13;;;31.87;100.00
11487;BME280;10510;47.942;9.442;2023-09-12T09:07:06;94435.16;;;32.26;100.00
11487;BME280;10510;47.942;9.442;2023-09-12T09:09:09;94439.78;;;32.64;100.00
11487;BME280;10510;47.942;9.442;2023-09-12T09:11:09;94435.00;;;32.31;100.00
11487;BME280;10510;47.942;9.442;2023-09-12T09:13:12;94438.88;;;31.48;100.00
11487;BME280;10510;47.942;9.442;2023-09-12T09:15:39;94434.75;;;30.81;100.00
11487;BME280;10510;47.942;9.442;2023-09-12T09:17:42;94428.50;;;30.72;100.00
11487;BME280;10510;47.942;9.442;2023-09-12T09:19:44;94429.00;;;30.65;100.00
11487;BME280;10510;47.942;9.442;2023-09-12T09:21:45;94435.88;;;30.31;100.00
11487;BME280;10510;47.942;9.442;2023-09-12T09:23:46;94426.94;;;29.60;100.00
11487;BME280;10510;47.942;9.442;2023-09-12T09:25:51;94429.88;;;29.05;100.00
11487;BME280;10510;47.942;9.442;2023-09-12T09:27:52;94425.88;;;28.66;100.00
11487;BME280;10510;47.942;9.442;2023-09-12T09:29:52;94426.41;;;28.54;100.00
11487;BME280;10510;47.942;9.442;2023-09-12T09:31:53;94427.88;;;28.60;100.00
11487;BME280;10510;47.942;9.442;2023-09-12T09:33:55;94422.50;;;28.60;100.00
11487;BME280;10510;47.942;9.442;2023-09-12T09:36:02;94426.53;;;28.85;100.00
11487;BME280;10510;47.942;9.442;2023-09-12T09:38:05;94426.59;;;29.08;100.00
11487;BME280;10510;47.942;9.442;2023-09-12T09:40:07;94424.81;;;29.03;100.00
11487;BME280;10510;47.942;9.442;2023-09-12T09:42:10;94426.06;;;28.83;100.00
11487;BME280;10510;47.942;9.442;2023-09-12T09:44:13;94427.56;;;28.62;100.00
11487;BME280;10510;47.942;9.442;2023-09-12T09:46:16;94426.19;;;28.64;100.00
11487;BME280;10510;47.942;9.442;2023-09-12T09:48:21;94418.50;;;28.71;100.00
11487;BME280;10510;47.942;9.442;2023-09-12T09:50:21;94420.78;;;28.78;100.00
11487;BME280;10510;47.942;9.442;2023-09-12T09:52:25;94422.03;;;28.94;100.00
11487;BME280;10510;47.942;9.442;2023-09-12T09:54:27;94416.81;;;29.12;100.00
11487;BME280;10510;47.942;9.442;2023-09-12T09:56:27;94412.47;;;29.25;100.00
11487;BME280;10510;47.942;9.442;2023-09-12T09:58:28;94407.41;;;29.23;100.00
11487;BME280;10510;47.942;9.442;2023-09-12T10:00:29;94402.34;;;29.22;100.00
11487;BME280;10510;47.942;9.442;2023-09-12T10:02:29;94405.00;;;29.44;100.00
11487;BME280;10510;47.942;9.442;2023-09-12T10:04:31;94403.50;;;29.60;100.00
11487;BME280;10510;47.942;9.442;2023-09-12T10:06:35;94405.19;;;29.48;100.00
11487;BME280;10510;47.942;9.442;2023-09-12T10:08:37;94404.25;;;29.52;100.00
11487;BME280;10510;47.942;9.442;2023-09-12T10:10:39;94397.91;;;29.79;100.00
11487;BME280;10510;47.942;9.442;2023-09-12T10:12:48;94390.13;;;30.09;100.00
11487;BME280;10510;47.942;9.442;2023-09-12T10:14:49;94396.88;;;30.29;100.00
11487;BME280;10510;47.942;9.442;2023-09-12T10:16:50;94383.56;;;30.24;100.00
11487;BME280;10510;47.942;9.442;2023-09-12T10:19:26;94379.97;;;30.06;100.00
11487;BME280;10510;47.942;9.442;2023-09-12T10:21:30;94386.91;;;29.90;100.00
11487;BME280;10510;47.942;9.442;2023-09-12T10:25:38;94383.09;;;30.30;100.00
11487;BME280;10510;47.942;9.442;2023-09-12T10:27:39;94378.84;;;30.55;100.00
11487;BME280;10510;47.942;9.442;2023-09-12T10:29:40;94377.13;;;30.60;100.00
11487;BME280;10510;47.942;9.442;2023-09-12T10:31:40;94374.84;;;30.44;100.00
11487;BME280;10510;47.942;9.442;2023-09-12T10:33:41;94375.84;;;30.48;100.00
11487;BME280;10510;47.942;9.442;2023-09-12T10:35:44;94375.53;;;30.67;100.00
11487;BME280;10510;47.942;9.442;2023-09-12T10:37:45;94372.22;;;30.88;100.00
11487;BME280;10510;47.942;9.442;2023-09-12T10:39:49;94376.53;;;30.89;100.00